sensor_id;sensor_type;location;lat;lon;timestamp;noise_LAeq;noise_LA_min;noise_LA_max;noise_LA01;noise_LA95
40465;Laerm;30489;48.982;8.394;2023-01-08T00:00:54;38.76;36.45;40.71;;
40465;Laerm;30489;48.982;8.394;2023-01-08T00:03:05;38.77;36.45;40.53;;
40465;Laerm;30489;48.982;8.394;2023-01-08T00:05:15;38.77;35.94;40.62;;
40465;Laerm;30489;48.982;8.394;2023-01-08T00:07:26;38.74;35.94;40.98;;
40465;Laerm;30489;48.982;8.394;2023-01-08T00:09:36;38.72;35.94;40.71;;
40465;Laerm;30489;48.982;8.394;2023-01-08T00:11:46;38.75;36.20;40.80;;
40465;Laerm;30489;48.982;8.394;2023-01-08T00:13:58;38.77;35.94;40.71;;
40465;Laerm;30489;48.982;8.394;2023-01-08T00:16:14;38.76;36.20;40.53;;
40465;Laerm;30489;48.982;8.394;2023-01-08T00:18:25;38.72;35.94;40.71;;
40465;Laerm;30489;48.982;8.394;2023-01-08T00:20:36;38.73;36.45;40.53;;
40465;Laerm;30489;48.982;8.394;2023-01-08T00:22:50;38.73;36.20;40.98;;
40465;Laerm;30489;48.982;8.394;2023-01-08T00:25:00;38.72;36.45;40.80;;
40465;Laerm;30489;48.982;8.394;2023-01-08T00:27:10;38.73;36.20;40.62;;
40465;Laerm;30489;48.982;8.394;2023-01-08T00:29:20;38.73;36.45;40.53;;
40465;Laerm;30489;48.982;8.394;2023-01-08T00:31:31;38.75;35.94;40.89;;
40465;Laerm;30489;48.982;8.394;2023-01-08T00:33:41;38.72;36.45;40.80;;
40465;Laerm;30489;48.982;8.394;2023-01-08T00:35:51;38.73;36.34;40.71;;
40465;Laerm;30489;48.982;8.394;2023-01-08T00:38:01;38.74;35.94;40.53;;
40465;Laerm;30489;48.982;8.394;2023-01-08T00:40:11;38.73;36.69;41.06;;
40465;Laerm;30489;48.982;8.394;2023-01-08T00:42:22;38.75;35.66;40.53;;
40465;Laerm;30489;48.982;8.394;2023-01-08T00:44:32;38.74;36.45;40.71;;
40465;Laerm;30489;48.982;8.394;2023-01-08T00:46:42;38.73;36.45;40.43;;
40465;Laerm;30489;48.982;8.394;2023-01-08T00:48:52;38.75;36.69;40.71;;
40465;Laerm;30489;48.982;8.394;2023-01-08T00:51:02;38.74;36.45;40.53;;
40465;Laerm;30489;48.982;8.394;2023-01-08T00:53:13;38.72;36.45;40.71;;
40465;Laerm;30489;48.982;8.394;2023-01-08T00:55:24;38.72;36.20;40.62;;
40465;Laerm;30489;48.982;8.394;2023-01-08T00:57:35;38.75;36.69;40.71;;
40465;Laerm;30489;48.982;8.394;2023-01-08T00:59:45;38.77;36.20;40.62;;
40465;Laerm;30489;48.982;8.394;2023-01-08T01:01:55;38.77;36.20;41.30;;
40465;Laerm;30489;48.982;8.394;2023-01-08T01:04:06;38.80;36.69;40.80;;
40465;Laerm;30489;48.982;8.394;2023-01-08T01:06:16;38.79;36.20;40.80;;
40465;Laerm;30489;48.982;8.394;2023-01-08T01:08:26;38.77;36.45;40.71;;
40465;Laerm;30489;48.982;8.394;2023-01-08T01:10:37;38.76;36.45;40.89;;
40465;Laerm;30489;48.982;8.394;2023-01-08T01:12:47;38.75;35.94;40.89;;
40465;Laerm;30489;48.982;8.394;2023-01-08T01:14:58;38.74;36.45;40.89;;
40465;Laerm;30489;48.982;8.394;2023-01-08T01:17:09;38.74;35.36;40.80;;
40465;Laerm;30489;48.982;8.394;2023-01-08T01:19:19;38.75;36.45;40.89;;
40465;Laerm;30489;48.982;8.394;2023-01-08T01:21:30;38.75;36.69;40.53;;
40465;Laerm;30489;48.982;8.394;2023-01-08T01:23:40;38.74;36.20;40.62;;
40465;Laerm;30489;48.982;8.394;2023-01-08T01:25:50;38.75;36.45;40.80;;
40465;Laerm;30489;48.982;8.394;2023-01-08T01:28:00;38.75;36.20;40.71;;
40465;Laerm;30489;48.982;8.394;2023-01-08T01:30:11;38.76;36.56;40.62;;
40465;Laerm;30489;48.982;8.394;2023-01-08T01:32:21;38.75;36.45;40.89;;
40465;Laerm;30489;48.982;8.394;2023-01-08T01:34:31;38.77;36.45;40.80;;
40465;Laerm;30489;48.982;8.394;2023-01-08T01:36:41;38.78;36.45;40.80;;
40465;Laerm;30489;48.982;8.394;2023-01-08T01:38:53;38.76;35.94;40.54;;
40465;Laerm;30489;48.982;8.394;2023-01-08T01:41:03;38.75;36.69;40.62;;
40465;Laerm;30489;48.982;8.394;2023-01-08T01:43:14;38.75;36.45;41.46;;
40465;Laerm;30489;48.982;8.394;2023-01-08T01:45:25;38.74;36.45;40.98;;
40465;Laerm;30489;48.982;8.394;2023-01-08T01:47:39;38.74;35.94;40.71;;
40465;Laerm;30489;48.982;8.394;2023-01-08T01:52:06;38.75;36.56;40.62;;
40465;Laerm;30489;48.982;8.394;2023-01-08T01:54:17;38.73;36.45;40.89;;
40465;Laerm;30489;48.982;8.394;2023-01-08T01:56:28;38.72;36.45;40.80;;
40465;Laerm;30489;48.982;8.394;2023-01-08T01:58:38;38.76;36.20;40.71;;
40465;Laerm;30489;48.982;8.394;2023-01-08T02:00:48;38.77;36.45;41.22;;
40465;Laerm;30489;48.982;8.394;2023-01-08T02:03:00;38.72;35.94;40.62;;
40465;Laerm;30489;48.982;8.394;2023-01-08T02:05:10;38.73;36.45;40.89;;
40465;Laerm;30489;48.982;8.394;2023-01-08T02:07:26;38.73;35.94;40.71;;
40465;Laerm;30489;48.982;8.394;2023-01-08T02:09:47;38.70;36.69;40.62;;
40465;Laerm;30489;48.982;8.394;2023-01-08T02:14:31;38.71;35.66;40.62;;
40465;Laerm;30489;48.982;8.394;2023-01-08T02:16:52;38.69;36.20;40.80;;
40465;Laerm;30489;48.982;8.394;2023-01-08T02:21:50;38.68;35.94;40.89;;
40465;Laerm;30489;48.982;8.394;2023-01-08T02:24:07;38.65;36.45;40.71;;
40465;Laerm;30489;48.982;8.394;2023-01-08T02:28:36;38.62;35.94;40.62;;
40465;Laerm;30489;48.982;8.394;2023-01-08T02:30:47;38.64;36.20;40.53;;
40465;Laerm;30489;48.982;8.394;2023-01-08T02:32:58;38.63;35.94;40.71;;
40465;Laerm;30489;48.982;8.394;2023-01-08T02:35:09;38.60;35.94;40.62;;
40465;Laerm;30489;48.982;8.394;2023-01-08T02:37:19;38.62;36.20;40.62;;
40465;Laerm;30489;48.982;8.394;2023-01-08T02:43:56;38.58;35.66;40.53;;
40465;Laerm;30489;48.982;8.394;2023-01-08T02:46:08;38.59;36.45;40.62;;
40465;Laerm;30489;48.982;8.394;2023-01-08T02:52:43;38.60;36.20;41.30;;
40465;Laerm;30489;48.982;8.394;2023-01-08T02:54:57;38.58;35.36;40.62;;
40465;Laerm;30489;48.982;8.394;2023-01-08T02:57:13;38.55;35.94;40.80;;
40465;Laerm;30489;48.982;8.394;2023-01-08T02:59:24;38.58;36.20;40.43;;
40465;Laerm;30489;48.982;8.394;2023-01-08T03:01:35;38.58;36.20;41.06;;
40465;Laerm;30489;48.982;8.394;2023-01-08T03:03:47;38.59;35.94;40.62;;
40465;Laerm;30489;48.982;8.394;2023-01-08T03:06:06;38.58;35.94;40.53;;
40465;Laerm;30489;48.982;8.394;2023-01-08T03:08:17;38.57;35.04;40.88;;
40465;Laerm;30489;48.982;8.394;2023-01-08T03:10:29;38.58;35.94;40.80;;
40465;Laerm;30489;48.982;8.394;2023-01-08T03:14:51;38.59;36.20;40.53;;
40465;Laerm;30489;48.982;8.394;2023-01-08T03:17:23;38.56;35.94;40.89;;
40465;Laerm;30489;48.982;8.394;2023-01-08T03:19:42;38.56;36.20;40.43;;
40465;Laerm;30489;48.982;8.394;2023-01-08T03:21:53;38.63;36.20;40.33;;
40465;Laerm;30489;48.982;8.394;2023-01-08T03:24:05;38.60;35.94;40.71;;
40465;Laerm;30489;48.982;8.394;2023-01-08T03:26:17;38.59;36.20;40.98;;
40465;Laerm;30489;48.982;8.394;2023-01-08T03:28:29;38.59;35.66;40.53;;
40465;Laerm;30489;48.982;8.394;2023-01-08T03:30:42;38.56;35.66;40.62;;
40465;Laerm;30489;48.982;8.394;2023-01-08T03:32:53;38.56;35.94;40.71;;
40465;Laerm;30489;48.982;8.394;2023-01-08T03:35:04;38.61;36.20;40.71;;
40465;Laerm;30489;48.982;8.394;2023-01-08T03:37:18;38.60;35.66;40.53;;
40465;Laerm;30489;48.982;8.394;2023-01-08T03:39:30;38.64;35.94;40.62;;
40465;Laerm;30489;48.982;8.394;2023-01-08T03:41:41;38.60;36.10;40.62;;
40465;Laerm;30489;48.982;8.394;2023-01-08T03:43:52;38.62;35.94;40.62;;
40465;Laerm;30489;48.982;8.394;2023-01-08T03:46:02;38.63;36.20;40.62;;
40465;Laerm;30489;48.982;8.394;2023-01-08T03:48:14;38.58;35.94;40.53;;
40465;Laerm;30489;48.982;8.394;2023-01-08T03:50:25;38.57;35.94;40.98;;
40465;Laerm;30489;48.982;8.394;2023-01-08T03:52:36;38.56;35.94;40.53;;
40465;Laerm;30489;48.982;8.394;2023-01-08T03:54:46;38.55;35.86;40.71;;
40465;Laerm;30489;48.982;8.394;2023-01-08T03:56:57;38.57;35.66;40.53;;
40465;Laerm;30489;48.982;8.394;2023-01-08T03:59:07;38.57;36.20;40.62;;
40465;Laerm;30489;48.982;8.394;2023-01-08T04:01:17;38.56;35.94;40.53;;
40465;Laerm;30489;48.982;8.394;2023-01-08T04:03:27;38.57;35.66;40.53;;
40465;Laerm;30489;48.982;8.394;2023-01-08T04:05:38;38.55;35.94;41.14;;
40465;Laerm;30489;48.982;8.394;2023-01-08T04:07:48;38.57;35.94;40.53;;
40465;Laerm;30489;48.982;8.394;2023-01-08T04:09:58;38.56;35.66;40.43;;
40465;Laerm;30489;48.982;8.394;2023-01-08T04:12:08;38.54;35.66;40.53;;
40465;Laerm;30489;48.982;8.394;2023-01-08T04:14:18;38.56;36.20;40.71;;
40465;Laerm;30489;48.982;8.394;2023-01-08T04:16:28;38.57;35.94;41.06;;
40465;Laerm;30489;48.982;8.394;2023-01-08T04:18:39;38.58;35.94;40.89;;
40465;Laerm;30489;48.982;8.394;2023-01-08T04:20:49;38.53;36.20;40.53;;
40465;Laerm;30489;48.982;8.394;2023-01-08T04:22:59;38.57;36.20;40.53;;
40465;Laerm;30489;48.982;8.394;2023-01-08T04:25:09;38.53;36.20;40.71;;
40465;Laerm;30489;48.982;8.394;2023-01-08T04:27:20;38.52;36.20;40.43;;
40465;Laerm;30489;48.982;8.394;2023-01-08T04:29:30;38.53;36.20;40.53;;
40465;Laerm;30489;48.982;8.394;2023-01-08T04:31:40;38.54;35.94;40.71;;
40465;Laerm;30489;48.982;8.394;2023-01-08T04:33:50;38.50;36.20;40.33;;
40465;Laerm;30489;48.982;8.394;2023-01-08T04:36:01;38.51;35.94;40.98;;
40465;Laerm;30489;48.982;8.394;2023-01-08T04:38:12;38.53;35.94;40.43;;
40465;Laerm;30489;48.982;8.394;2023-01-08T04:40:22;38.52;35.94;40.33;;
40465;Laerm;30489;48.982;8.394;2023-01-08T04:42:32;38.53;35.36;40.62;;
40465;Laerm;30489;48.982;8.394;2023-01-08T04:44:42;38.50;35.66;40.53;;
40465;Laerm;30489;48.982;8.394;2023-01-08T04:46:52;38.52;35.94;40.62;;
40465;Laerm;30489;48.982;8.394;2023-01-08T04:49:03;38.49;35.94;40.62;;
40465;Laerm;30489;48.982;8.394;2023-01-08T04:51:13;38.50;35.86;40.53;;
40465;Laerm;30489;48.982;8.394;2023-01-08T04:53:23;38.51;35.04;40.63;;
40465;Laerm;30489;48.982;8.394;2023-01-08T04:55:33;38.48;35.94;40.89;;
40465;Laerm;30489;48.982;8.394;2023-01-08T04:57:43;38.62;36.20;58.74;;
40465;Laerm;30489;48.982;8.394;2023-01-08T04:59:54;38.47;35.94;40.33;;
40465;Laerm;30489;48.982;8.394;2023-01-08T05:02:04;38.46;35.94;40.33;;
40465;Laerm;30489;48.982;8.394;2023-01-08T05:04:14;38.46;35.94;40.53;;
40465;Laerm;30489;48.982;8.394;2023-01-08T05:06:24;38.45;35.94;40.62;;
40465;Laerm;30489;48.982;8.394;2023-01-08T05:08:35;38.48;35.66;40.43;;
40465;Laerm;30489;48.982;8.394;2023-01-08T05:10:45;38.45;35.94;40.62;;
40465;Laerm;30489;48.982;8.394;2023-01-08T05:12:59;38.47;35.94;40.33;;
40465;Laerm;30489;48.982;8.394;2023-01-08T05:15:09;38.46;35.66;40.71;;
40465;Laerm;30489;48.982;8.394;2023-01-08T05:17:19;38.44;35.66;40.53;;
40465;Laerm;30489;48.982;8.394;2023-01-08T05:19:30;38.49;35.66;40.71;;
40465;Laerm;30489;48.982;8.394;2023-01-08T05:21:40;38.46;35.66;40.71;;
40465;Laerm;30489;48.982;8.394;2023-01-08T05:23:50;38.48;35.36;40.80;;
40465;Laerm;30489;48.982;8.394;2023-01-08T05:26:01;38.44;35.66;40.33;;
40465;Laerm;30489;48.982;8.394;2023-01-08T05:28:12;38.51;35.66;56.60;;
40465;Laerm;30489;48.982;8.394;2023-01-08T05:30:22;38.42;36.20;40.89;;
40465;Laerm;30489;48.982;8.394;2023-01-08T05:32:32;38.43;35.66;40.62;;
40465;Laerm;30489;48.982;8.394;2023-01-08T05:34:43;38.44;36.10;40.62;;
40465;Laerm;30489;48.982;8.394;2023-01-08T05:36:53;38.44;35.66;40.53;;
40465;Laerm;30489;48.982;8.394;2023-01-08T05:39:03;38.45;35.36;40.62;;
40465;Laerm;30489;48.982;8.394;2023-01-08T05:41:13;38.44;35.36;40.62;;
40465;Laerm;30489;48.982;8.394;2023-01-08T05:43:24;38.46;35.36;40.53;;
40465;Laerm;30489;48.982;8.394;2023-01-08T05:45:34;38.47;35.66;40.80;;
40465;Laerm;30489;48.982;8.394;2023-01-08T05:47:44;38.48;35.04;50.35;;
40465;Laerm;30489;48.982;8.394;2023-01-08T05:49:54;38.46;35.66;40.43;;
40465;Laerm;30489;48.982;8.394;2023-01-08T05:52:05;38.46;35.66;40.43;;
40465;Laerm;30489;48.982;8.394;2023-01-08T05:54:15;38.44;35.94;40.54;;
40465;Laerm;30489;48.982;8.394;2023-01-08T05:56:25;38.43;35.66;40.43;;
40465;Laerm;30489;48.982;8.394;2023-01-08T05:58:36;38.42;35.66;40.53;;
40465;Laerm;30489;48.982;8.394;2023-01-08T06:00:46;38.42;35.94;40.53;;
40465;Laerm;30489;48.982;8.394;2023-01-08T06:02:56;38.44;35.04;40.80;;
40465;Laerm;30489;48.982;8.394;2023-01-08T06:05:07;38.44;35.36;40.80;;
40465;Laerm;30489;48.982;8.394;2023-01-08T06:07:17;38.46;35.94;40.80;;
40465;Laerm;30489;48.982;8.394;2023-01-08T06:09:27;40.34;35.94;71.51;;
40465;Laerm;30489;48.982;8.394;2023-01-08T06:11:37;38.42;35.66;40.43;;
40465;Laerm;30489;48.982;8.394;2023-01-08T06:13:47;38.46;35.94;40.53;;
40465;Laerm;30489;48.982;8.394;2023-01-08T06:15:58;38.45;35.66;41.06;;
40465;Laerm;30489;48.982;8.394;2023-01-08T06:18:09;38.45;35.66;40.62;;
40465;Laerm;30489;48.982;8.394;2023-01-08T06:20:19;38.44;35.94;40.53;;
40465;Laerm;30489;48.982;8.394;2023-01-08T06:22:29;38.44;35.04;40.80;;
40465;Laerm;30489;48.982;8.394;2023-01-08T06:24:39;38.46;35.36;40.62;;
40465;Laerm;30489;48.982;8.394;2023-01-08T06:26:49;38.47;35.94;40.71;;
40465;Laerm;30489;48.982;8.394;2023-01-08T06:29:00;38.51;35.66;55.83;;
40465;Laerm;30489;48.982;8.394;2023-01-08T06:31:10;38.38;35.66;40.53;;
40465;Laerm;30489;48.982;8.394;2023-01-08T06:33:20;38.42;35.66;40.53;;
40465;Laerm;30489;48.982;8.394;2023-01-08T06:35:30;38.41;35.66;40.43;;
40465;Laerm;30489;48.982;8.394;2023-01-08T06:37:40;38.44;35.66;40.71;;
40465;Laerm;30489;48.982;8.394;2023-01-08T06:39:51;38.42;35.36;40.43;;
40465;Laerm;30489;48.982;8.394;2023-01-08T06:42:01;38.41;35.94;40.53;;
40465;Laerm;30489;48.982;8.394;2023-01-08T06:44:11;38.40;35.59;40.89;;
40465;Laerm;30489;48.982;8.394;2023-01-08T06:46:22;38.43;35.94;40.53;;
40465;Laerm;30489;48.982;8.394;2023-01-08T06:48:32;38.40;35.66;40.43;;
40465;Laerm;30489;48.982;8.394;2023-01-08T06:50:42;38.38;35.66;40.89;;
40465;Laerm;30489;48.982;8.394;2023-01-08T06:52:53;38.41;35.36;40.89;;
40465;Laerm;30489;48.982;8.394;2023-01-08T06:55:03;38.41;35.36;40.71;;
40465;Laerm;30489;48.982;8.394;2023-01-08T06:57:15;38.42;35.36;40.62;;
40465;Laerm;30489;48.982;8.394;2023-01-08T06:59:25;38.40;35.94;40.71;;
40465;Laerm;30489;48.982;8.394;2023-01-08T07:01:35;38.48;35.66;54.50;;
40465;Laerm;30489;48.982;8.394;2023-01-08T07:03:45;38.40;35.66;40.36;;
40465;Laerm;30489;48.982;8.394;2023-01-08T07:05:56;42.36;34.69;75.84;;
40465;Laerm;30489;48.982;8.394;2023-01-08T07:08:09;38.39;35.66;40.71;;
40465;Laerm;30489;48.982;8.394;2023-01-08T07:10:19;38.44;35.36;57.19;;
40465;Laerm;30489;48.982;8.394;2023-01-08T07:12:30;38.34;35.36;41.61;;
40465;Laerm;30489;48.982;8.394;2023-01-08T07:14:40;38.34;35.66;40.62;;
40465;Laerm;30489;48.982;8.394;2023-01-08T07:16:50;38.36;35.36;40.43;;
40465;Laerm;30489;48.982;8.394;2023-01-08T07:19:00;38.35;35.36;40.53;;
40465;Laerm;30489;48.982;8.394;2023-01-08T07:21:11;38.34;35.66;40.43;;
40465;Laerm;30489;48.982;8.394;2023-01-08T07:23:21;38.33;35.36;40.71;;
40465;Laerm;30489;48.982;8.394;2023-01-08T07:25:31;38.34;34.31;40.23;;
40465;Laerm;30489;48.982;8.394;2023-01-08T07:27:41;38.35;35.59;40.53;;
40465;Laerm;30489;48.982;8.394;2023-01-08T07:29:51;38.35;35.94;40.43;;
40465;Laerm;30489;48.982;8.394;2023-01-08T07:32:02;38.36;35.66;40.62;;
40465;Laerm;30489;48.982;8.394;2023-01-08T07:34:12;38.33;35.66;40.53;;
40465;Laerm;30489;48.982;8.394;2023-01-08T07:36:22;38.35;35.86;40.53;;
40465;Laerm;30489;48.982;8.394;2023-01-08T07:38:33;38.34;35.66;40.43;;
40465;Laerm;30489;48.982;8.394;2023-01-08T07:40:43;38.34;35.66;40.71;;
40465;Laerm;30489;48.982;8.394;2023-01-08T07:43:00;38.34;35.66;40.23;;
40465;Laerm;30489;48.982;8.394;2023-01-08T07:45:11;38.34;35.36;40.53;;
40465;Laerm;30489;48.982;8.394;2023-01-08T07:47:21;38.35;35.36;40.43;;
40465;Laerm;30489;48.982;8.394;2023-01-08T07:49:31;38.32;35.04;40.45;;
40465;Laerm;30489;48.982;8.394;2023-01-08T07:51:41;38.36;35.04;40.53;;
40465;Laerm;30489;48.982;8.394;2023-01-08T07:53:51;38.32;35.36;40.53;;
40465;Laerm;30489;48.982;8.394;2023-01-08T07:56:06;38.38;35.36;40.62;;
40465;Laerm;30489;48.982;8.394;2023-01-08T07:58:16;38.39;35.66;40.80;;
40465;Laerm;30489;48.982;8.394;2023-01-08T08:00:26;38.33;35.66;40.89;;
40465;Laerm;30489;48.982;8.394;2023-01-08T08:02:37;38.33;35.66;40.43;;
40465;Laerm;30489;48.982;8.394;2023-01-08T08:04:47;38.34;35.66;50.96;;
40465;Laerm;30489;48.982;8.394;2023-01-08T08:06:57;38.34;35.04;40.53;;
40465;Laerm;30489;48.982;8.394;2023-01-08T08:09:08;38.33;35.36;40.43;;
40465;Laerm;30489;48.982;8.394;2023-01-08T08:11:18;38.34;35.04;40.53;;
40465;Laerm;30489;48.982;8.394;2023-01-08T08:13:28;38.33;35.04;40.33;;
40465;Laerm;30489;48.982;8.394;2023-01-08T08:15:39;38.34;35.36;45.48;;
40465;Laerm;30489;48.982;8.394;2023-01-08T08:17:50;38.35;35.94;40.23;;
40465;Laerm;30489;48.982;8.394;2023-01-08T08:20:00;38.33;35.94;40.53;;
40465;Laerm;30489;48.982;8.394;2023-01-08T08:22:11;38.35;35.04;40.71;;
40465;Laerm;30489;48.982;8.394;2023-01-08T08:24:21;38.36;35.36;40.80;;
40465;Laerm;30489;48.982;8.394;2023-01-08T08:26:31;38.35;35.04;40.71;;
40465;Laerm;30489;48.982;8.394;2023-01-08T08:28:41;40.72;34.69;72.73;;
40465;Laerm;30489;48.982;8.394;2023-01-08T08:30:52;38.27;35.36;40.43;;
40465;Laerm;30489;48.982;8.394;2023-01-08T08:33:03;38.26;35.36;40.43;;
40465;Laerm;30489;48.982;8.394;2023-01-08T08:35:13;38.27;35.36;40.33;;
40465;Laerm;30489;48.982;8.394;2023-01-08T08:37:23;38.29;35.36;40.53;;
40465;Laerm;30489;48.982;8.394;2023-01-08T08:39:35;38.27;35.36;40.53;;
40465;Laerm;30489;48.982;8.394;2023-01-08T08:41:45;38.27;35.66;40.43;;
40465;Laerm;30489;48.982;8.394;2023-01-08T08:43:55;38.28;35.04;40.43;;
40465;Laerm;30489;48.982;8.394;2023-01-08T08:46:05;38.25;35.36;41.53;;
40465;Laerm;30489;48.982;8.394;2023-01-08T08:48:15;38.26;35.36;40.33;;
40465;Laerm;30489;48.982;8.394;2023-01-08T08:50:26;38.26;35.66;40.23;;
40465;Laerm;30489;48.982;8.394;2023-01-08T08:52:36;38.29;35.31;40.53;;
40465;Laerm;30489;48.982;8.394;2023-01-08T08:54:46;38.28;35.36;40.23;;
40465;Laerm;30489;48.982;8.394;2023-01-08T08:56:56;38.28;35.66;40.71;;
40465;Laerm;30489;48.982;8.394;2023-01-08T08:59:07;38.29;35.66;40.62;;
40465;Laerm;30489;48.982;8.394;2023-01-08T09:01:18;38.27;35.36;40.33;;
40465;Laerm;30489;48.982;8.394;2023-01-08T09:03:28;38.27;35.04;40.53;;
40465;Laerm;30489;48.982;8.394;2023-01-08T09:05:39;38.27;35.36;40.71;;
40465;Laerm;30489;48.982;8.394;2023-01-08T09:07:49;38.28;35.31;40.33;;
40465;Laerm;30489;48.982;8.394;2023-01-08T09:09:59;38.29;35.36;40.36;;
40465;Laerm;30489;48.982;8.394;2023-01-08T09:12:09;38.27;35.36;42.65;;
40465;Laerm;30489;48.982;8.394;2023-01-08T09:14:22;38.27;35.36;40.62;;
40465;Laerm;30489;48.982;8.394;2023-01-08T09:16:47;38.26;35.36;40.71;;
40465;Laerm;30489;48.982;8.394;2023-01-08T09:18:57;38.27;35.36;40.71;;
40465;Laerm;30489;48.982;8.394;2023-01-08T09:21:08;38.28;35.66;40.33;;
40465;Laerm;30489;48.982;8.394;2023-01-08T09:23:18;38.26;35.36;40.53;;
40465;Laerm;30489;48.982;8.394;2023-01-08T09:25:29;38.30;34.69;40.36;;
40465;Laerm;30489;48.982;8.394;2023-01-08T09:27:39;38.28;35.36;40.43;;
40465;Laerm;30489;48.982;8.394;2023-01-08T09:29:49;38.32;35.36;40.43;;
40465;Laerm;30489;48.982;8.394;2023-01-08T09:31:59;38.33;35.04;40.33;;
40465;Laerm;30489;48.982;8.394;2023-01-08T09:34:11;38.29;35.36;40.53;;
40465;Laerm;30489;48.982;8.394;2023-01-08T09:36:21;38.26;35.66;40.89;;
40465;Laerm;30489;48.982;8.394;2023-01-08T09:38:31;38.25;35.66;40.53;;
40465;Laerm;30489;48.982;8.394;2023-01-08T09:40:43;38.26;35.04;40.23;;
40465;Laerm;30489;48.982;8.394;2023-01-08T09:42:58;38.28;35.36;40.71;;
40465;Laerm;30489;48.982;8.394;2023-01-08T09:45:15;38.26;35.36;40.33;;
40465;Laerm;30489;48.982;8.394;2023-01-08T09:47:37;38.26;35.36;40.43;;
40465;Laerm;30489;48.982;8.394;2023-01-08T09:49:48;38.26;35.36;40.62;;
40465;Laerm;30489;48.982;8.394;2023-01-08T09:51:58;38.27;35.36;40.33;;
40465;Laerm;30489;48.982;8.394;2023-01-08T09:54:10;38.23;34.31;40.33;;
40465;Laerm;30489;48.982;8.394;2023-01-08T09:56:22;38.27;35.66;40.98;;
40465;Laerm;30489;48.982;8.394;2023-01-08T09:58:34;38.28;35.04;40.33;;
40465;Laerm;30489;48.982;8.394;2023-01-08T10:00:45;38.26;35.66;40.33;;
40465;Laerm;30489;48.982;8.394;2023-01-08T10:02:56;38.25;35.66;40.80;;
40465;Laerm;30489;48.982;8.394;2023-01-08T10:05:14;38.27;35.66;40.33;;
40465;Laerm;30489;48.982;8.394;2023-01-08T10:07:25;38.24;35.36;40.71;;
40465;Laerm;30489;48.982;8.394;2023-01-08T10:09:36;38.27;35.36;40.53;;
40465;Laerm;30489;48.982;8.394;2023-01-08T10:11:46;38.26;34.69;40.33;;
40465;Laerm;30489;48.982;8.394;2023-01-08T10:13:58;38.28;34.31;40.62;;
40465;Laerm;30489;48.982;8.394;2023-01-08T10:16:08;38.28;34.31;40.43;;
40465;Laerm;30489;48.982;8.394;2023-01-08T10:18:20;38.30;35.66;40.43;;
40465;Laerm;30489;48.982;8.394;2023-01-08T10:20:32;38.28;35.66;40.80;;
40465;Laerm;30489;48.982;8.394;2023-01-08T10:22:42;38.28;35.36;40.43;;
40465;Laerm;30489;48.982;8.394;2023-01-08T10:25:01;38.28;34.69;40.43;;
40465;Laerm;30489;48.982;8.394;2023-01-08T10:29:22;38.30;35.36;40.43;;
40465;Laerm;30489;48.982;8.394;2023-01-08T10:31:32;38.28;35.04;40.23;;
40465;Laerm;30489;48.982;8.394;2023-01-08T10:33:44;38.29;35.36;40.43;;
40465;Laerm;30489;48.982;8.394;2023-01-08T10:35:59;38.29;35.66;40.53;;
40465;Laerm;30489;48.982;8.394;2023-01-08T10:38:23;38.31;35.59;40.89;;
40465;Laerm;30489;48.982;8.394;2023-01-08T10:40:36;38.31;35.66;40.33;;
40465;Laerm;30489;48.982;8.394;2023-01-08T10:42:48;38.32;35.04;40.62;;
40465;Laerm;30489;48.982;8.394;2023-01-08T10:45:00;38.29;35.04;40.43;;
40465;Laerm;30489;48.982;8.394;2023-01-08T10:47:12;38.34;35.66;40.33;;
40465;Laerm;30489;48.982;8.394;2023-01-08T10:49:27;38.34;35.66;41.22;;
40465;Laerm;30489;48.982;8.394;2023-01-08T10:51:42;38.30;35.66;40.71;;
40465;Laerm;30489;48.982;8.394;2023-01-08T10:53:58;38.35;35.36;40.62;;
40465;Laerm;30489;48.982;8.394;2023-01-08T10:58:28;38.37;35.66;40.53;;
40465;Laerm;30489;48.982;8.394;2023-01-08T11:00:39;38.37;35.94;40.33;;
40465;Laerm;30489;48.982;8.394;2023-01-08T11:02:49;38.37;35.36;40.53;;
40465;Laerm;30489;48.982;8.394;2023-01-08T11:04:59;38.38;35.36;40.80;;
40465;Laerm;30489;48.982;8.394;2023-01-08T11:07:14;38.35;35.66;40.43;;
40465;Laerm;30489;48.982;8.394;2023-01-08T11:09:30;38.36;35.36;40.43;;
40465;Laerm;30489;48.982;8.394;2023-01-08T11:11:41;38.38;35.36;40.53;;
40465;Laerm;30489;48.982;8.394;2023-01-08T11:13:59;38.39;35.66;40.43;;
40465;Laerm;30489;48.982;8.394;2023-01-08T11:16:09;38.41;36.20;40.53;;
40465;Laerm;30489;48.982;8.394;2023-01-08T11:18:20;38.40;35.66;40.53;;
40465;Laerm;30489;48.982;8.394;2023-01-08T11:20:31;38.40;35.66;40.43;;
40465;Laerm;30489;48.982;8.394;2023-01-08T11:22:42;38.40;35.66;40.36;;
40465;Laerm;30489;48.982;8.394;2023-01-08T11:24:53;38.43;35.66;40.89;;
40465;Laerm;30489;48.982;8.394;2023-01-08T11:27:11;38.44;35.66;40.71;;
40465;Laerm;30489;48.982;8.394;2023-01-08T11:33:51;38.47;35.66;40.27;;
40465;Laerm;30489;48.982;8.394;2023-01-08T11:38:28;38.51;35.94;40.80;;
40465;Laerm;30489;48.982;8.394;2023-01-08T11:45:41;38.50;35.94;40.43;;
40465;Laerm;30489;48.982;8.394;2023-01-08T11:50:26;38.59;35.66;40.43;;
40465;Laerm;30489;48.982;8.394;2023-01-08T11:57:16;38.64;35.94;40.71;;
40465;Laerm;30489;48.982;8.394;2023-01-08T11:59:32;38.65;36.45;40.62;;
40465;Laerm;30489;48.982;8.394;2023-01-08T12:02:00;38.63;36.20;40.80;;
40465;Laerm;30489;48.982;8.394;2023-01-08T12:07:01;38.63;35.36;40.53;;
40465;Laerm;30489;48.982;8.394;2023-01-08T12:21:17;38.69;35.94;40.43;;
40465;Laerm;30489;48.982;8.394;2023-01-08T12:23:35;38.70;36.45;40.98;;
40465;Laerm;30489;48.982;8.394;2023-01-08T12:25:59;38.70;35.94;40.43;;
40465;Laerm;30489;48.982;8.394;2023-01-08T12:30:23;38.69;36.20;40.62;;
40465;Laerm;30489;48.982;8.394;2023-01-08T12:32:36;38.75;35.94;40.89;;
40465;Laerm;30489;48.982;8.394;2023-01-08T12:34:56;38.76;36.45;40.71;;
40465;Laerm;30489;48.982;8.394;2023-01-08T12:37:29;38.76;36.45;40.88;;
40465;Laerm;30489;48.982;8.394;2023-01-08T12:39:45;38.82;36.45;40.71;;
40465;Laerm;30489;48.982;8.394;2023-01-08T12:41:59;38.78;35.94;40.71;;
40465;Laerm;30489;48.982;8.394;2023-01-08T12:44:22;38.80;36.45;40.62;;
40465;Laerm;30489;48.982;8.394;2023-01-08T12:46:35;38.85;35.66;40.80;;
40465;Laerm;30489;48.982;8.394;2023-01-08T12:48:46;38.85;36.20;40.89;;
40465;Laerm;30489;48.982;8.394;2023-01-08T12:51:03;38.87;36.69;40.98;;
40465;Laerm;30489;48.982;8.394;2023-01-08T13:04:57;38.86;35.94;40.54;;
40465;Laerm;30489;48.982;8.394;2023-01-08T13:07:51;38.89;36.69;40.98;;
40465;Laerm;30489;48.982;8.394;2023-01-08T13:09:41;38.91;36.69;40.71;;
40465;Laerm;30489;48.982;8.394;2023-01-08T13:11:52;38.86;36.20;40.80;;
40465;Laerm;30489;48.982;8.394;2023-01-08T13:14:08;38.90;36.45;40.71;;
40465;Laerm;30489;48.982;8.394;2023-01-08T13:16:19;38.92;36.91;40.80;;
40465;Laerm;30489;48.982;8.394;2023-01-08T13:18:30;38.94;36.69;41.38;;
40465;Laerm;30489;48.982;8.394;2023-01-08T13:20:40;38.90;36.45;40.71;;
40465;Laerm;30489;48.982;8.394;2023-01-08T13:22:52;38.94;36.45;40.80;;
40465;Laerm;30489;48.982;8.394;2023-01-08T13:25:07;38.96;36.91;40.71;;
40465;Laerm;30489;48.982;8.394;2023-01-08T13:31:41;38.93;36.69;41.06;;
40465;Laerm;30489;48.982;8.394;2023-01-08T13:33:52;38.94;36.45;40.89;;